Time;durP1;ratioP1;P1;durP2;ratioP2;P2;SDS_P1;SDS_P2;PMS_P1;PMS_P2;Temp;Humidity;BMP_temperature;BMP_pressure;BME280_temperature;BME280_humidity;BME280_pressure;Samples;Min_cycle;Max_cycle;Signal;HPM_P1;HPM_P2
2023/04/02 00:01:39;;;;;;;40.58;16.25;;;;;;;;;;4807797;29;20059;-79
2023/04/02 00:04:25;;;;;;;43.25;18.25;;;;;;;;;;4807990;29;20043;-78
2023/04/02 00:07:39;;;;;;;43.88;18.38;;;;;;;;;;4807296;29;20051;-78
2023/04/02 00:10:33;;;;;;;36.17;16.48;;;;;;;;;;4813625;29;20063;-78
2023/04/02 00:13:29;;;;;;;56.20;21.20;;;;;;;;;;4807531;29;20054;-79
2023/04/02 00:16:20;;;;;;;64.70;24.52;;;;;;;;;;4807086;29;20047;-80
2023/04/02 00:19:11;;;;;;;64.35;23.02;;;;;;;;;;4807371;29;20042;-79
2023/04/02 00:21:59;;;;;;;59.55;22.00;;;;;;;;;;4807095;29;20050;-79
2023/04/02 00:24:45;;;;;;;62.55;23.23;;;;;;;;;;4807511;29;20405;-78
2023/04/02 00:27:31;;;;;;;58.80;23.00;;;;;;;;;;4807423;29;20039;-79
2023/04/02 00:30:17;;;;;;;36.83;16.17;;;;;;;;;;4807057;29;20489;-80
2023/04/02 00:33:03;;;;;;;45.75;18.67;;;;;;;;;;4807650;29;20050;-78
2023/04/02 00:35:49;;;;;;;36.03;16.58;;;;;;;;;;4806105;29;20054;-79
2023/04/02 00:38:37;;;;;;;38.67;16.73;;;;;;;;;;4799254;29;20509;-78
2023/04/02 00:41:26;;;;;;;42.45;19.88;;;;;;;;;;4799518;29;20477;-79
2023/04/02 00:44:20;;;;;;;50.42;21.13;;;;;;;;;;4806549;29;20433;-78
2023/04/02 00:47:23;;;;;;;46.63;21.25;;;;;;;;;;4799516;29;20047;-79
2023/04/02 00:50:13;;;;;;;40.22;20.50;;;;;;;;;;4799340;29;20054;-78
2023/04/02 00:53:03;;;;;;;35.17;17.08;;;;;;;;;;4799598;29;20047;-79
2023/04/02 00:55:52;;;;;;;30.48;15.35;;;;;;;;;;4806017;29;20055;-79
2023/04/02 00:58:38;;;;;;;33.92;15.32;;;;;;;;;;4806800;29;20055;-79
2023/04/02 01:01:35;;;;;;;48.50;17.77;;;;;;;;;;4807153;29;20055;-79
2023/04/02 01:04:33;;;;;;;53.83;20.75;;;;;;;;;;4798824;29;20058;-80
2023/04/02 01:07:42;;;;;;;37.78;13.05;;;;;;;;;;4807120;29;20477;-79
2023/04/02 01:10:42;;;;;;;24.65;9.85;;;;;;;;;;4799363;29;20055;-79
2023/04/02 01:13:44;;;;;;;15.20;7.28;;;;;;;;;;4811562;29;20055;-79
2023/04/02 01:16:29;;;;;;;9.88;4.90;;;;;;;;;;4799134;29;20055;-78
2023/04/02 01:19:21;;;;;;;9.52;4.05;;;;;;;;;;4806341;29;20046;-79
2023/04/02 01:22:06;;;;;;;6.70;3.47;;;;;;;;;;4812117;29;20047;-78
2023/04/02 01:24:58;;;;;;;8.07;3.42;;;;;;;;;;4810083;29;20059;-78
2023/04/02 01:27:50;;;;;;;4.53;2.97;;;;;;;;;;4812204;29;20046;-79
2023/04/02 01:30:36;;;;;;;7.45;3.35;;;;;;;;;;4812145;29;20062;-79
2023/04/02 01:33:32;;;;;;;6.32;3.03;;;;;;;;;;4806221;29;20059;-79
2023/04/02 01:36:42;;;;;;;5.57;3.38;;;;;;;;;;4805729;29;20054;-78
2023/04/02 01:39:33;;;;;;;4.80;2.67;;;;;;;;;;4811280;29;20047;-79
2023/04/02 01:42:22;;;;;;;10.93;4.75;;;;;;;;;;4806820;29;20051;-79
2023/04/02 01:45:18;;;;;;;9.60;4.38;;;;;;;;;;4806409;29;20051;-78
2023/04/02 01:48:19;;;;;;;7.88;3.85;;;;;;;;;;4799424;29;20050;-79
2023/04/02 01:51:06;;;;;;;6.68;4.03;;;;;;;;;;4814909;29;20047;-79
2023/04/02 01:53:51;;;;;;;6.88;3.92;;;;;;;;;;4802375;29;20051;-79
2023/04/02 01:56:36;;;;;;;6.25;3.78;;;;;;;;;;4810138;29;20043;-78
2023/04/02 01:59:23;;;;;;;9.50;5.00;;;;;;;;;;4814618;29;20058;-78
2023/04/02 02:02:14;;;;;;;11.40;4.93;;;;;;;;;;4815017;29;20059;-79
2023/04/02 02:05:23;;;;;;;11.88;6.80;;;;;;;;;;4802473;29;20051;-79
2023/04/02 02:08:30;;;;;;;25.83;9.73;;;;;;;;;;4814672;29;20493;-79
2023/04/02 02:11:22;;;;;;;22.17;11.60;;;;;;;;;;4815277;29;20055;-79
2023/04/02 02:14:15;;;;;;;24.35;11.70;;;;;;;;;;4801850;29;20059;-79
2023/04/02 02:17:02;;;;;;;22.30;11.30;;;;;;;;;;4815480;29;20054;-79
2023/04/02 02:19:52;;;;;;;22.13;10.35;;;;;;;;;;4815815;29;20420;-77
2023/04/02 02:22:47;;;;;;;17.30;8.73;;;;;;;;;;4813098;29;20055;-79
2023/04/02 02:25:35;;;;;;;16.55;8.45;;;;;;;;;;4811852;29;20059;-79
2023/04/02 02:28:25;;;;;;;15.35;7.38;;;;;;;;;;4814773;29;20050;-78
2023/04/02 02:31:18;;;;;;;31.17;10.30;;;;;;;;;;4817337;29;20409;-78
2023/04/02 02:34:15;;;;;;;26.02;10.48;;;;;;;;;;4801486;29;20055;-79
2023/04/02 02:37:11;;;;;;;22.33;9.55;;;;;;;;;;4803341;29;20047;-79
2023/04/02 02:40:00;;;;;;;24.27;9.10;;;;;;;;;;4814398;29;20493;-79
2023/04/02 02:42:51;;;;;;;24.77;11.20;;;;;;;;;;4814158;29;20484;-79
2023/04/02 02:45:46;;;;;;;19.15;9.18;;;;;;;;;;4809490;29;20047;-79
2023/04/02 02:48:37;;;;;;;19.35;8.65;;;;;;;;;;4813944;29;20050;-79
2023/04/02 02:51:43;;;;;;;14.15;7.15;;;;;;;;;;4801452;29;20058;-79
2023/04/02 02:54:38;;;;;;;17.80;8.82;;;;;;;;;;4814076;29;20047;-79
2023/04/02 02:57:28;;;;;;;18.02;9.60;;;;;;;;;;4814367;29;20047;-79
2023/04/02 03:00:18;;;;;;;22.02;11.15;;;;;;;;;;4813959;29;20051;-79
2023/04/02 03:03:09;;;;;;;24.05;10.75;;;;;;;;;;4800582;29;20409;-79
2023/04/02 03:06:19;;;;;;;19.92;10.30;;;;;;;;;;4801214;29;20413;-79
2023/04/02 03:09:18;;;;;;;18.88;9.45;;;;;;;;;;4801052;29;20501;-79
2023/04/02 03:12:45;;;;;;;14.10;7.65;;;;;;;;;;4801222;29;20054;-79
2023/04/02 03:15:49;;;;;;;13.93;7.68;;;;;;;;;;4814352;29;20046;-79
2023/04/02 03:18:57;;;;;;;16.92;8.70;;;;;;;;;;4808785;29;20441;-80
2023/04/02 03:21:47;;;;;;;17.20;9.80;;;;;;;;;;4808720;29;20680;-79
2023/04/02 03:24:52;;;;;;;17.83;9.43;;;;;;;;;;4799878;29;20046;-79
2023/04/02 03:27:45;;;;;;;16.45;9.48;;;;;;;;;;4813721;29;20055;-79
2023/04/02 03:30:48;;;;;;;18.48;9.07;;;;;;;;;;4800669;29;20058;-79
2023/04/02 03:33:51;;;;;;;17.13;8.77;;;;;;;;;;4813464;29;20050;-79
2023/04/02 03:37:01;;;;;;;16.20;7.90;;;;;;;;;;4813841;29;20497;-79
2023/04/02 03:40:19;;;;;;;14.55;6.97;;;;;;;;;;4800361;29;20051;-79
2023/04/02 03:43:14;;;;;;;13.05;5.85;;;;;;;;;;4795160;29;20051;-79
2023/04/02 03:46:24;;;;;;;11.52;6.28;;;;;;;;;;4784017;29;20055;-79
2023/04/02 03:49:25;;;;;;;12.70;7.32;;;;;;;;;;4797448;29;20055;-79
2023/04/02 03:52:16;;;;;;;18.73;8.55;;;;;;;;;;4789920;29;20486;-79
2023/04/02 03:55:15;;;;;;;19.02;8.82;;;;;;;;;;4784084;29;20047;-79
2023/04/02 03:58:43;;;;;;;18.33;9.40;;;;;;;;;;4782023;29;20486;-79
2023/04/02 04:01:35;;;;;;;22.90;10.50;;;;;;;;;;4741907;30;20055;-78
2023/04/02 04:04:24;;;;;;;17.77;9.35;;;;;;;;;;4764221;30;20044;-78
2023/04/02 04:07:19;;;;;;;18.35;9.63;;;;;;;;;;4800748;29;20051;-79
2023/04/02 04:10:07;;;;;;;23.10;11.45;;;;;;;;;;4799710;29;20042;-78
2023/04/02 04:12:56;;;;;;;18.92;10.90;;;;;;;;;;4797394;29;20055;-79
2023/04/02 04:15:59;;;;;;;22.50;10.45;;;;;;;;;;4813384;29;20054;-79
2023/04/02 04:18:55;;;;;;;21.55;10.13;;;;;;;;;;4801690;29;20059;-79
2023/04/02 04:21:44;;;;;;;19.45;10.98;;;;;;;;;;4787771;30;20055;-78
2023/04/02 04:24:44;;;;;;;22.48;10.25;;;;;;;;;;4779566;29;20055;-77
2023/04/02 04:27:52;;;;;;;27.42;11.90;;;;;;;;;;4779873;29;20401;-78
2023/04/02 04:30:50;;;;;;;26.50;14.02;;;;;;;;;;4793644;29;20055;-78
2023/04/02 04:33:45;;;;;;;30.02;13.25;;;;;;;;;;4780874;29;20047;-78
2023/04/02 04:36:52;;;;;;;25.48;12.73;;;;;;;;;;4793930;29;20051;-78
2023/04/02 04:39:45;;;;;;;20.48;11.10;;;;;;;;;;4794189;29;20055;-78
2023/04/02 04:42:35;;;;;;;18.58;10.30;;;;;;;;;;4794495;29;20055;-78
2023/04/02 04:45:32;;;;;;;20.17;10.88;;;;;;;;;;4793938;29;20493;-79
2023/04/02 04:48:26;;;;;;;25.58;11.60;;;;;;;;;;4781149;29;20047;-78
2023/04/02 04:51:23;;;;;;;19.27;10.80;;;;;;;;;;4793827;29;20059;-78
2023/04/02 04:54:13;;;;;;;20.08;10.88;;;;;;;;;;4793982;29;20047;-79
2023/04/02 04:57:04;;;;;;;18.58;10.65;;;;;;;;;;4789569;30;20055;-79
2023/04/02 05:00:12;;;;;;;25.75;11.55;;;;;;;;;;4794032;29;20055;-79
2023/04/02 05:03:05;;;;;;;26.48;10.25;;;;;;;;;;4781069;29;20059;-79
2023/04/02 05:05:51;;;;;;;16.27;9.23;;;;;;;;;;4793991;29;20059;-79
2023/04/02 05:08:43;;;;;;;17.50;10.48;;;;;;;;;;4793511;29;20051;-78
2023/04/02 05:11:38;;;;;;;21.13;10.55;;;;;;;;;;4794168;29;20067;-79
2023/04/02 05:14:36;;;;;;;31.67;13.73;;;;;;;;;;4794023;29;20055;-79
2023/04/02 05:17:34;;;;;;;29.48;15.90;;;;;;;;;;4781120;29;20410;-78
2023/04/02 05:20:42;;;;;;;26.08;14.60;;;;;;;;;;4793772;29;20051;-78
2023/04/02 05:23:33;;;;;;;27.02;14.27;;;;;;;;;;4793443;29;20051;-79
2023/04/02 05:26:49;;;;;;;24.38;14.45;;;;;;;;;;4774663;29;20052;-79
2023/04/02 05:29:37;;;;;;;;;;;;;;;;;;4786516;29;20059;-78
2023/04/02 05:32:28;;;;;;;23.65;12.25;;;;;;;;;;4792843;29;19925;-79
2023/04/02 05:35:17;;;;;;;24.25;14.15;;;;;;;;;;4785058;29;20051;-79
2023/04/02 05:38:04;;;;;;;27.92;16.15;;;;;;;;;;4797020;29;20055;-79
2023/04/02 05:41:04;;;;;;;32.05;19.05;;;;;;;;;;4798905;29;20047;-79
2023/04/02 05:43:57;;;;;;;27.05;15.05;;;;;;;;;;4798979;29;20050;-79
2023/04/02 05:46:49;;;;;;;21.88;11.60;;;;;;;;;;4785996;30;20055;-79
2023/04/02 05:49:51;;;;;;;33.60;14.83;;;;;;;;;;4763084;30;20426;-80
2023/04/02 05:52:44;;;;;;;22.40;13.02;;;;;;;;;;4775562;30;20060;-80
2023/04/02 05:55:49;;;;;;;19.38;11.13;;;;;;;;;;4770736;30;20056;-82
2023/04/02 05:58:42;;;;;;;15.68;10.35;;;;;;;;;;4770536;30;20047;-79
2023/04/02 06:01:44;;;;;;;13.13;7.82;;;;;;;;;;4769511;30;20047;-79
2023/04/02 06:05:14;;;;;;;20.05;10.07;;;;;;;;;;4774119;30;20414;-78
2023/04/02 06:08:09;;;;;;;14.25;6.55;;;;;;;;;;4786955;29;20054;-83
2023/04/02 06:11:11;;;;;;;16.33;8.20;;;;;;;;;;4777897;30;20051;-79
2023/04/02 06:13:58;;;;;;;12.93;7.80;;;;;;;;;;4780718;30;20059;-78
2023/04/02 06:16:45;;;;;;;13.43;7.30;;;;;;;;;;4780418;30;20055;-79
2023/04/02 06:19:35;;;;;;;11.70;6.47;;;;;;;;;;4787770;30;20043;-80
2023/04/02 06:22:38;;;;;;;15.25;7.18;;;;;;;;;;4780207;30;20047;-80
2023/04/02 06:25:30;;;;;;;14.52;6.90;;;;;;;;;;4799471;29;20062;-80
2023/04/02 06:28:25;;;;;;;12.63;7.65;;;;;;;;;;4812160;29;20496;-80
2023/04/02 06:31:26;;;;;;;11.68;7.30;;;;;;;;;;4798547;29;20058;-80
2023/04/02 06:34:23;;;;;;;12.38;7.25;;;;;;;;;;4797978;29;20484;-80
2023/04/02 06:37:26;;;;;;;7.22;4.50;;;;;;;;;;4798804;29;20484;-78
2023/04/02 06:40:38;;;;;;;10.82;5.43;;;;;;;;;;4796082;29;20051;-80
2023/04/02 06:43:37;;;;;;;9.60;5.05;;;;;;;;;;4792898;29;20055;-78
2023/04/02 06:46:47;;;;;;;14.23;5.60;;;;;;;;;;4826487;29;20050;-78
2023/04/02 06:49:42;;;;;;;14.98;7.38;;;;;;;;;;4819751;29;20055;-79
2023/04/02 06:52:33;;;;;;;24.45;10.23;;;;;;;;;;4817056;29;20412;-78
2023/04/02 06:55:19;;;;;;;14.15;7.47;;;;;;;;;;4801091;29;20059;-78
2023/04/02 06:58:04;;;;;;;12.40;5.60;;;;;;;;;;4803185;29;20438;-78
2023/04/02 07:00:50;;;;;;;10.10;5.50;;;;;;;;;;4808008;29;20038;-78
2023/04/02 07:03:43;;;;;;;8.82;4.88;;;;;;;;;;4799119;29;20412;-77
2023/04/02 07:06:37;;;;;;;15.68;6.30;;;;;;;;;;4787511;29;20409;-79
2023/04/02 07:09:22;;;;;;;7.68;4.28;;;;;;;;;;4800965;29;20058;-79
2023/04/02 07:12:13;;;;;;;10.98;3.72;;;;;;;;;;4813507;29;20509;-78
2023/04/02 07:14:59;;;;;;;4.55;2.55;;;;;;;;;;4820123;29;20055;-78
2023/04/02 07:17:45;;;;;;;6.85;4.13;;;;;;;;;;4819002;29;20050;-79
2023/04/02 07:20:36;;;;;;;5.57;2.83;;;;;;;;;;4806255;29;20055;-80
2023/04/02 07:23:24;;;;;;;5.80;2.47;;;;;;;;;;4782767;29;20051;-77
2023/04/02 07:26:19;;;;;;;4.05;2.55;;;;;;;;;;4790389;30;20517;-80
2023/04/02 07:29:13;;;;;;;6.57;3.78;;;;;;;;;;4796557;29;20055;-79
2023/04/02 07:31:59;;;;;;;3.58;2.63;;;;;;;;;;4801784;29;20051;-78
2023/04/02 07:34:45;;;;;;;4.43;2.92;;;;;;;;;;4801895;29;20051;-78
2023/04/02 07:37:32;;;;;;;15.82;7.07;;;;;;;;;;4805139;29;20062;-78
2023/04/02 07:40:19;;;;;;;11.70;7.78;;;;;;;;;;4801239;29;20047;-79
2023/04/02 07:43:05;;;;;;;13.27;8.05;;;;;;;;;;4803142;29;20405;-78
2023/04/02 07:45:51;;;;;;;17.67;6.65;;;;;;;;;;4802147;29;20047;-80
2023/04/02 07:48:36;;;;;;;14.00;6.45;;;;;;;;;;4805975;29;20479;-79
2023/04/02 07:51:24;;;;;;;15.55;7.60;;;;;;;;;;4810560;29;20055;-79
2023/04/02 07:54:10;;;;;;;17.73;8.18;;;;;;;;;;4804377;29;20051;-79
2023/04/02 07:56:55;;;;;;;9.52;5.55;;;;;;;;;;4801124;29;20047;-79
2023/04/02 07:59:41;;;;;;;12.70;6.35;;;;;;;;;;4791906;29;20047;-80
2023/04/02 08:02:25;;;;;;;10.05;3.63;;;;;;;;;;4800156;29;20055;-79
2023/04/02 08:05:11;;;;;;;7.53;3.60;;;;;;;;;;4796821;29;20055;-78
2023/04/02 08:07:56;;;;;;;8.50;4.50;;;;;;;;;;4808211;29;20051;-79
2023/04/02 08:10:41;;;;;;;12.68;3.67;;;;;;;;;;4796631;29;20051;-78
2023/04/02 08:13:27;;;;;;;11.25;5.65;;;;;;;;;;4804783;29;20034;-79
2023/04/02 08:16:13;;;;;;;10.60;6.05;;;;;;;;;;4810150;29;20054;-80
2023/04/02 08:18:58;;;;;;;11.73;5.82;;;;;;;;;;4823766;29;20046;-79
2023/04/02 08:21:44;;;;;;;8.77;4.82;;;;;;;;;;4825446;29;20050;-79
2023/04/02 08:24:30;;;;;;;6.57;3.80;;;;;;;;;;4825602;29;20042;-79
2023/04/02 08:27:15;;;;;;;10.13;5.03;;;;;;;;;;4824882;29;20500;-79
2023/04/02 08:29:59;;;;;;;11.90;6.50;;;;;;;;;;4819848;29;20505;-80
2023/04/02 08:32:45;;;;;;;8.57;4.60;;;;;;;;;;4806532;29;20066;-78
2023/04/02 08:35:31;;;;;;;7.22;4.22;;;;;;;;;;4807011;29;20047;-77
2023/04/02 08:38:18;;;;;;;10.07;5.10;;;;;;;;;;4806721;29;20062;-78
2023/04/02 08:41:04;;;;;;;7.05;3.25;;;;;;;;;;4806955;29;20497;-79
2023/04/02 08:43:58;;;;;;;15.82;8.30;;;;;;;;;;4806030;29;20054;-79
2023/04/02 08:46:52;;;;;;;5.65;2.67;;;;;;;;;;4806737;29;20055;-78
2023/04/02 08:49:37;;;;;;;7.47;3.78;;;;;;;;;;4806851;29;20046;-78
2023/04/02 08:52:31;;;;;;;2.85;2.20;;;;;;;;;;4806857;29;20055;-79
2023/04/02 08:55:33;;;;;;;9.18;3.65;;;;;;;;;;4806947;29;20051;-79
2023/04/02 08:58:41;;;;;;;10.68;4.30;;;;;;;;;;4806945;29;20047;-78
2023/04/02 09:01:52;;;;;;;3.72;2.33;;;;;;;;;;4806651;29;20055;-77
2023/04/02 09:04:39;;;;;;;4.63;2.70;;;;;;;;;;4806700;29;20059;-78
2023/04/02 09:07:25;;;;;;;5.65;2.70;;;;;;;;;;4814618;29;20046;-78
2023/04/02 09:10:16;;;;;;;5.22;2.70;;;;;;;;;;4821959;29;20050;-79
2023/04/02 09:13:01;;;;;;;5.40;2.63;;;;;;;;;;4813752;29;20050;-79
2023/04/02 09:15:46;;;;;;;4.63;3.00;;;;;;;;;;4793024;29;20405;-79
2023/04/02 09:18:32;;;;;;;8.55;3.65;;;;;;;;;;4806912;29;20412;-80
2023/04/02 09:21:22;;;;;;;8.05;3.15;;;;;;;;;;4806294;29;20054;-79
2023/04/02 09:24:12;;;;;;;4.90;2.17;;;;;;;;;;4806819;29;20051;-79
2023/04/02 09:26:57;;;;;;;5.00;2.90;;;;;;;;;;4806738;29;20058;-78
2023/04/02 09:29:44;;;;;;;4.90;2.63;;;;;;;;;;4806475;29;20047;-79
2023/04/02 09:32:45;;;;;;;5.90;3.22;;;;;;;;;;4799142;29;20050;-79
2023/04/02 09:35:35;;;;;;;5.47;3.30;;;;;;;;;;4806166;29;20055;-80
2023/04/02 09:38:23;;;;;;;8.38;3.50;;;;;;;;;;4806689;29;20047;-79
2023/04/02 09:41:28;;;;;;;5.20;2.80;;;;;;;;;;4805823;29;20042;-80
2023/04/02 09:44:24;;;;;;;3.83;2.60;;;;;;;;;;4799318;29;20054;-80
2023/04/02 09:47:25;;;;;;;4.22;2.47;;;;;;;;;;4792545;29;20050;-80
2023/04/02 09:50:19;;;;;;;6.43;2.88;;;;;;;;;;4806162;29;20066;-79
2023/04/02 09:53:39;;;;;;;6.80;2.92;;;;;;;;;;4806569;29;20050;-80
2023/04/02 09:56:25;;;;;;;7.13;4.10;;;;;;;;;;4790432;29;20050;-80
2023/04/02 09:59:21;;;;;;;3.92;2.40;;;;;;;;;;4806526;29;20051;-81
2023/04/02 10:02:28;;;;;;;5.53;2.90;;;;;;;;;;4805882;29;20055;-80
2023/04/02 10:05:18;;;;;;;2.88;1.67;;;;;;;;;;4806371;29;20051;-80
2023/04/02 10:08:15;;;;;;;1.02;1.00;;;;;;;;;;4805404;29;20051;-79
2023/04/02 10:11:11;;;;;;;3.22;1.85;;;;;;;;;;4807220;29;20055;-79
2023/04/02 10:14:05;;;;;;;3.85;2.15;;;;;;;;;;4809657;29;20043;-79
2023/04/02 10:17:17;;;;;;;4.28;2.28;;;;;;;;;;4809680;29;20497;-79
2023/04/02 10:20:25;;;;;;;4.13;1.20;;;;;;;;;;4809373;29;20042;-80
2023/04/02 10:23:17;;;;;;;2.42;1.30;;;;;;;;;;4809988;29;20055;-80
2023/04/02 10:26:32;;;;;;;3.38;1.30;;;;;;;;;;4809857;29;20054;-80
2023/04/02 10:30:03;;;;;;;4.70;1.80;;;;;;;;;;4809343;29;20043;-79
2023/04/02 10:33:16;;;;;;;1.15;0.90;;;;;;;;;;4787307;29;20055;-80
2023/04/02 10:36:29;;;;;;;3.72;1.65;;;;;;;;;;4809347;29;20047;-80
2023/04/02 10:39:20;;;;;;;3.35;1.65;;;;;;;;;;4809206;29;20051;-80
2023/04/02 10:42:36;;;;;;;3.10;1.50;;;;;;;;;;4808672;29;20051;-80
2023/04/02 10:45:59;;;;;;;6.43;1.88;;;;;;;;;;4809104;29;20055;-79
2023/04/02 10:49:09;;;;;;;3.65;1.77;;;;;;;;;;4808951;29;20481;-80
2023/04/02 10:52:04;;;;;;;2.55;1.73;;;;;;;;;;4809326;29;20042;-79
2023/04/02 10:54:53;;;;;;;3.38;1.80;;;;;;;;;;4808587;29;20063;-80
2023/04/02 10:57:42;;;;;;;3.58;1.50;;;;;;;;;;4809126;29;20050;-80
2023/04/02 11:00:30;;;;;;;2.70;1.48;;;;;;;;;;4809076;29;20054;-79
2023/04/02 11:03:28;;;;;;;2.53;1.20;;;;;;;;;;4808558;29;20051;-78
2023/04/02 11:06:22;;;;;;;2.65;1.40;;;;;;;;;;4808775;29;20500;-78
2023/04/02 11:09:15;;;;;;;3.05;1.90;;;;;;;;;;4808175;29;20051;-79
2023/04/02 11:12:05;;;;;;;3.45;1.67;;;;;;;;;;4809331;29;20059;-78
2023/04/02 11:14:52;;;;;;;2.65;1.58;;;;;;;;;;4808546;29;20055;-79
2023/04/02 11:17:38;;;;;;;2.17;1.13;;;;;;;;;;4808326;29;20066;-79
2023/04/02 11:20:58;;;;;;;2.10;1.35;;;;;;;;;;4808216;29;20409;-78
2023/04/02 11:23:58;;;;;;;2.40;1.40;;;;;;;;;;4807162;29;20043;-78
2023/04/02 11:26:46;;;;;;;3.63;1.60;;;;;;;;;;4795356;29;20055;-78
2023/04/02 11:29:35;;;;;;;4.75;1.60;;;;;;;;;;4808131;29;20426;-78
2023/04/02 11:32:22;;;;;;;4.70;1.67;;;;;;;;;;4808400;29;20047;-78
2023/04/02 11:35:38;;;;;;;1.73;1.02;;;;;;;;;;4814570;29;20051;-78
2023/04/02 11:38:27;;;;;;;3.35;1.38;;;;;;;;;;4792898;29;20051;-77
2023/04/02 11:41:12;;;;;;;2.55;1.30;;;;;;;;;;4808065;29;20055;-79
2023/04/02 11:44:00;;;;;;;4.00;1.63;;;;;;;;;;4807753;29;20051;-78
2023/04/02 11:46:45;;;;;;;2.50;1.40;;;;;;;;;;4807815;29;20047;-76
2023/04/02 11:49:36;;;;;;;3.50;2.10;;;;;;;;;;4808021;29;20410;-79
2023/04/02 11:52:22;;;;;;;1.60;1.20;;;;;;;;;;4807510;29;20055;-79
2023/04/02 11:55:21;;;;;;;4.03;1.27;;;;;;;;;;4807961;29;20047;-78
2023/04/02 11:58:26;;;;;;;1.92;0.95;;;;;;;;;;4807744;29;20050;-79
2023/04/02 12:01:51;;;;;;;3.20;1.63;;;;;;;;;;4813698;29;20401;-79
2023/04/02 12:04:48;;;;;;;1.77;1.10;;;;;;;;;;4807485;29;20051;-78
2023/04/02 12:08:15;;;;;;;3.83;1.50;;;;;;;;;;4807665;29;20055;-79
2023/04/02 12:11:01;;;;;;;3.08;1.40;;;;;;;;;;4793859;29;20066;-78
2023/04/02 12:13:49;;;;;;;4.07;1.73;;;;;;;;;;4806305;29;20059;-79
2023/04/02 12:16:34;;;;;;;6.85;1.38;;;;;;;;;;4807599;29;20054;-80
2023/04/02 12:19:21;;;;;;;3.33;1.25;;;;;;;;;;4807476;29;20059;-80
2023/04/02 12:22:18;;;;;;;2.15;0.90;;;;;;;;;;4806647;29;20050;-79
2023/04/02 12:25:23;;;;;;;2.28;1.40;;;;;;;;;;4789427;30;20059;-79
2023/04/02 12:28:09;;;;;;;1.67;0.93;;;;;;;;;;4796874;29;20055;-77
2023/04/02 12:31:06;;;;;;;2.25;1.15;;;;;;;;;;4805937;29;20058;-79
2023/04/02 12:33:52;;;;;;;0.80;0.60;;;;;;;;;;4805327;29;20050;-79
2023/04/02 12:36:39;;;;;;;1.70;0.82;;;;;;;;;;4825234;29;20051;-80
2023/04/02 12:39:25;;;;;;;0.80;0.57;;;;;;;;;;4817559;29;20488;-78
2023/04/02 12:42:34;;;;;;;4.78;1.45;;;;;;;;;;4825125;29;20054;-80
2023/04/02 12:45:21;;;;;;;3.25;1.35;;;;;;;;;;4825311;29;20054;-79
2023/04/02 12:48:10;;;;;;;1.25;1.00;;;;;;;;;;4796923;29;20055;-80
2023/04/02 12:50:56;;;;;;;1.48;1.00;;;;;;;;;;4788932;30;20378;-80
2023/04/02 12:53:41;;;;;;;1.67;0.85;;;;;;;;;;4822334;29;20050;-81
2023/04/02 12:56:26;;;;;;;1.70;1.02;;;;;;;;;;4809568;29;20047;-79
2023/04/02 12:59:42;;;;;;;1.52;0.82;;;;;;;;;;4800824;29;20484;-78
2023/04/02 13:02:43;;;;;;;3.55;1.20;;;;;;;;;;4795124;29;20047;-79
2023/04/02 13:05:41;;;;;;;1.52;0.90;;;;;;;;;;4805185;29;20412;-79
2023/04/02 13:08:39;;;;;;;1.15;0.82;;;;;;;;;;4801104;29;20050;-78
2023/04/02 13:11:39;;;;;;;1.50;1.00;;;;;;;;;;4802390;29;20047;-79
2023/04/02 13:14:26;;;;;;;0.70;0.70;;;;;;;;;;4793941;29;20047;-79
2023/04/02 13:17:42;;;;;;;1.30;0.90;;;;;;;;;;4805301;29;20047;-78
2023/04/02 13:20:36;;;;;;;1.60;0.90;;;;;;;;;;4799446;29;20051;-81
2023/04/02 13:23:27;;;;;;;1.35;0.77;;;;;;;;;;4806571;29;20047;-79
2023/04/02 13:26:23;;;;;;;0.70;0.70;;;;;;;;;;4801302;29;20055;-79
2023/04/02 13:29:17;;;;;;;2.22;0.90;;;;;;;;;;4807293;29;20054;-79
2023/04/02 13:32:10;;;;;;;1.08;0.73;;;;;;;;;;4812696;29;20062;-80
2023/04/02 13:34:54;;;;;;;2.88;1.63;;;;;;;;;;4798713;29;20497;-79
2023/04/02 13:37:39;;;;;;;3.22;1.83;;;;;;;;;;4788246;30;20051;-79
2023/04/02 13:40:24;;;;;;;3.47;2.20;;;;;;;;;;4788618;30;20055;-79
2023/04/02 13:43:17;;;;;;;1.73;0.98;;;;;;;;;;4791014;29;20038;-78
2023/04/02 13:46:05;;;;;;;3.42;2.30;;;;;;;;;;4803296;29;20059;-79
2023/04/02 13:48:51;;;;;;;2.03;0.90;;;;;;;;;;4796680;29;20055;-80
2023/04/02 13:51:37;;;;;;;3.03;1.33;;;;;;;;;;4807092;29;20050;-79
2023/04/02 13:54:22;;;;;;;3.75;1.92;;;;;;;;;;4822555;29;20058;-80
2023/04/02 13:57:08;;;;;;;5.78;2.22;;;;;;;;;;4805814;29;20055;-79
2023/04/02 13:59:54;;;;;;;1.95;1.27;;;;;;;;;;4809744;29;20051;-77
2023/04/02 14:02:43;;;;;;;2.97;1.20;;;;;;;;;;4808832;29;20042;-78
2023/04/02 14:05:33;;;;;;;0.75;0.70;;;;;;;;;;4825885;29;20042;-78
2023/04/02 14:08:45;;;;;;;1.50;0.93;;;;;;;;;;4814143;29;20046;-78
2023/04/02 14:11:39;;;;;;;2.20;1.45;;;;;;;;;;4803434;29;20059;-78
2023/04/02 14:14:31;;;;;;;1.90;1.50;;;;;;;;;;4807740;29;20058;-79
2023/04/02 14:17:25;;;;;;;1.83;1.15;;;;;;;;;;4808605;29;20042;-80
2023/04/02 14:20:18;;;;;;;;;;;;;;;;;;4815393;29;20055;-78
2023/04/02 14:23:19;;;;;;;3.40;1.70;;;;;;;;;;4808918;29;19937;-77
2023/04/02 14:26:29;;;;;;;2.13;1.42;;;;;;;;;;4808686;29;20481;-81
2023/04/02 14:29:27;;;;;;;3.03;1.58;;;;;;;;;;4808293;29;20055;-78
2023/04/02 14:32:29;;;;;;;1.35;1.02;;;;;;;;;;4801504;29;20050;-81
2023/04/02 14:35:27;;;;;;;2.33;1.80;;;;;;;;;;4809424;29;20043;-81
2023/04/02 14:38:39;;;;;;;2.67;1.60;;;;;;;;;;4809916;29;20047;-80
2023/04/02 14:41:29;;;;;;;2.70;1.35;;;;;;;;;;4809486;29;20469;-78
2023/04/02 14:44:18;;;;;;;2.10;1.33;;;;;;;;;;4809254;29;20433;-77
2023/04/02 14:47:25;;;;;;;3.67;1.30;;;;;;;;;;4808944;29;20488;-80
2023/04/02 14:50:15;;;;;;;3.45;1.70;;;;;;;;;;4814372;29;20059;-81
2023/04/02 14:53:10;;;;;;;2.47;1.50;;;;;;;;;;4808933;29;20055;-80
2023/04/02 14:55:58;;;;;;;2.70;1.42;;;;;;;;;;4809509;29;20051;-79
2023/04/02 14:58:47;;;;;;;3.58;1.20;;;;;;;;;;4808238;29;20059;-80
2023/04/02 15:01:38;;;;;;;1.45;0.93;;;;;;;;;;4808633;29;20051;-80
2023/04/02 15:04:35;;;;;;;3.63;0.90;;;;;;;;;;4808976;29;20055;-80
2023/04/02 15:07:24;;;;;;;1.77;1.10;;;;;;;;;;4808268;29;20054;-80
2023/04/02 15:10:25;;;;;;;3.38;1.92;;;;;;;;;;4808740;29;20043;-80
2023/04/02 15:13:20;;;;;;;3.03;1.73;;;;;;;;;;4808709;29;20059;-80
2023/04/02 15:16:12;;;;;;;1.10;1.00;;;;;;;;;;4808733;29;20062;-80
2023/04/02 15:19:02;;;;;;;3.42;1.75;;;;;;;;;;4808873;29;20043;-80
2023/04/02 15:21:50;;;;;;;4.18;2.13;;;;;;;;;;4808321;29;20051;-81
2023/04/02 15:25:04;;;;;;;5.22;2.50;;;;;;;;;;4808872;29;20485;-80
2023/04/02 15:28:06;;;;;;;1.52;1.02;;;;;;;;;;4807509;29;20055;-80
2023/04/02 15:30:57;;;;;;;3.10;1.10;;;;;;;;;;4808692;29;20055;-79
2023/04/02 15:33:46;;;;;;;3.35;1.60;;;;;;;;;;4808658;29;20393;-80
2023/04/02 15:36:40;;;;;;;3.15;2.17;;;;;;;;;;4800256;29;20074;-79
2023/04/02 15:39:34;;;;;;;2.17;1.30;;;;;;;;;;4808241;29;20047;-80
2023/04/02 15:42:29;;;;;;;3.47;2.03;;;;;;;;;;4807931;29;20513;-79
2023/04/02 15:45:44;;;;;;;3.85;2.08;;;;;;;;;;4808489;29;20047;-79
2023/04/02 15:48:46;;;;;;;3.70;1.80;;;;;;;;;;4790815;29;20058;-80
2023/04/02 15:51:37;;;;;;;5.00;2.42;;;;;;;;;;4808396;29;20469;-80
2023/04/02 15:54:35;;;;;;;2.50;1.40;;;;;;;;;;4807893;29;20058;-80
2023/04/02 15:57:45;;;;;;;4.80;2.17;;;;;;;;;;4807662;29;20421;-80
2023/04/02 16:00:39;;;;;;;4.07;2.00;;;;;;;;;;4808210;29;20055;-79
2023/04/02 16:03:44;;;;;;;;;;;;;;;;;;4808147;29;20039;-79
2023/04/02 16:07:09;;;;;;;4.82;2.88;;;;;;;;;;4807702;29;19921;-78
2023/04/02 16:10:03;;;;;;;10.80;3.72;;;;;;;;;;4807044;29;20042;-79
2023/04/02 16:12:51;;;;;;;6.88;3.22;;;;;;;;;;4807888;29;20054;-80
2023/04/02 16:15:42;;;;;;;13.20;4.22;;;;;;;;;;4813458;29;20058;-79
2023/04/02 16:18:53;;;;;;;9.35;3.70;;;;;;;;;;4807254;29;20500;-80
2023/04/02 16:21:53;;;;;;;12.27;5.20;;;;;;;;;;4807522;29;20055;-80
2023/04/02 16:24:38;;;;;;;16.77;8.13;;;;;;;;;;4807314;29;20397;-79
2023/04/02 16:27:39;;;;;;;8.98;4.35;;;;;;;;;;4812849;29;20054;-79
2023/04/02 16:31:02;;;;;;;7.15;3.80;;;;;;;;;;4807245;29;20062;-81
2023/04/02 16:33:55;;;;;;;23.63;10.93;;;;;;;;;;4800267;29;20397;-80
2023/04/02 16:36:46;;;;;;;15.75;7.95;;;;;;;;;;4807781;29;20428;-81
2023/04/02 16:39:59;;;;;;;15.80;9.35;;;;;;;;;;4806859;29;20055;-81
2023/04/02 16:42:52;;;;;;;12.70;7.75;;;;;;;;;;4807087;29;20408;-78
2023/04/02 16:45:46;;;;;;;11.85;7.45;;;;;;;;;;4806990;29;20146;-79
2023/04/02 16:48:47;;;;;;;10.70;5.75;;;;;;;;;;4807606;29;20055;-79
2023/04/02 16:52:00;;;;;;;10.40;4.60;;;;;;;;;;4807089;29;20063;-79
2023/04/02 16:55:05;;;;;;;22.07;11.90;;;;;;;;;;4807045;29;20055;-80
2023/04/02 16:58:13;;;;;;;19.80;11.40;;;;;;;;;;4806963;29;20047;-79
2023/04/02 17:01:07;;;;;;;17.10;11.07;;;;;;;;;;4807361;29;20050;-80
2023/04/02 17:04:08;;;;;;;12.93;4.25;;;;;;;;;;4807004;29;20047;-80
2023/04/02 17:07:28;;;;;;;7.22;4.43;;;;;;;;;;4806394;29;20050;-79
2023/04/02 17:10:25;;;;;;;13.07;7.32;;;;;;;;;;4788802;29;20043;-79
2023/04/02 17:13:31;;;;;;;18.10;8.93;;;;;;;;;;4806476;29;20058;-80
2023/04/02 17:16:29;;;;;;;15.45;8.75;;;;;;;;;;4804957;29;20050;-79
2023/04/02 17:19:17;;;;;;;37.92;19.00;;;;;;;;;;4807167;29;20080;-80
2023/04/02 17:22:17;;;;;;;83.68;45.30;;;;;;;;;;4806281;29;20047;-80